Time;durP1;ratioP1;P1;durP2;ratioP2;P2;SDS_P1;SDS_P2;PMS_P1;PMS_P2;Temp;Humidity;BMP_temperature;BMP_pressure;BME280_temperature;BME280_humidity;BME280_pressure;Samples;Min_cycle;Max_cycle;Signal;HPM_P1;HPM_P2
2022/06/14 00:03:06;;;;;;;;;;;;;;;;;;5071043;28;19918;-86
2022/06/14 00:05:52;;;;;;;;;;;;;;;;;;5071163;28;20387;-84
2022/06/14 00:08:39;;;;;;;;;;;;;;;;;;5056714;28;19950;-83
2022/06/14 00:11:25;;;;;;;;;;;;;;;;;;5067116;28;20391;-84
2022/06/14 00:14:12;;;;;;;;;;;;;;;;;;5057917;28;19912;-83
2022/06/14 00:16:58;;;;;;;;;;;;;;;;;;5046159;28;19917;-83
2022/06/14 00:19:45;;;;;;;;;;;;;;;;;;5068239;28;20281;-82
2022/06/14 00:22:31;;;;;;;;;;;;;;;;;;5065026;28;19916;-82
2022/06/14 00:25:18;;;;;;;;;;;;;;;;;;5055299;28;20537;-83
2022/06/14 00:28:04;;;;;;;;;;;;;;;;;;5070264;28;19913;-82
2022/06/14 00:30:51;;;;;;;;;;;;;;;;;;5058651;28;19909;-82
2022/06/14 00:33:37;;;;;;;;;;;;;;;;;;5070877;28;20265;-84
2022/06/14 00:36:24;;;;;;;;;;;;;;;;;;5051886;28;19925;-84
2022/06/14 00:39:10;;;;;;;;;;;;;;;;;;5072488;28;19920;-85
2022/06/14 00:41:57;;;;;;;;;;;;;;;;;;5070326;28;19935;-85
2022/06/14 00:44:43;;;;;;;;;;;;;;;;;;5071635;28;19913;-84
2022/06/14 00:47:29;;;;;;;;;;;;;;;;;;5057031;28;19914;-84
2022/06/14 00:50:16;;;;;;;;;;;;;;;;;;5074642;28;20412;-83
2022/06/14 00:53:02;;;;;;;;;;;;;;;;;;5077599;28;19916;-84
2022/06/14 00:55:49;;;;;;;;;;;;;;;;;;5088932;28;19912;-85
2022/06/14 00:58:35;;;;;;;;;;;;;;;;;;5079949;28;19913;-83
2022/06/14 01:01:22;;;;;;;;;;;;;;;;;;5090340;28;19908;-85
2022/06/14 01:04:08;;;;;;;;;;;;;;;;;;5089934;28;19931;-84
2022/06/14 01:06:55;;;;;;;;;;;;;;;;;;5073724;28;19919;-85
2022/06/14 01:09:41;;;;;;;;;;;;;;;;;;5085577;28;19912;-84
2022/06/14 01:12:28;;;;;;;;;;;;;;;;;;5088107;28;19912;-84
2022/06/14 01:15:14;;;;;;;;;;;;;;;;;;5088798;28;19915;-85
2022/06/14 01:18:01;;;;;;;;;;;;;;;;;;5087423;28;19916;-83
2022/06/14 01:20:47;;;;;;;;;;;;;;;;;;5069832;28;19912;-85
2022/06/14 01:23:34;;;;;;;;;;;;;;;;;;5085048;28;19908;-86
2022/06/14 01:26:20;;;;;;;;;;;;;;;;;;5086772;28;19908;-84
2022/06/14 01:29:06;;;;;;;;;;;;;;;;;;5091699;28;19916;-86
2022/06/14 01:31:53;;;;;;;;;;;;;;;;;;5079945;28;19923;-87
2022/06/14 01:34:39;;;;;;;;;;;;;;;;;;5090309;28;19912;-87
2022/06/14 01:37:26;;;;;;;;;;;;;;;;;;5082869;28;19923;-85
2022/06/14 01:40:12;;;;;;;;;;;;;;;;;;5091377;28;19916;-85
2022/06/14 01:42:59;;;;;;;;;;;;;;;;;;5078956;28;19908;-84
2022/06/14 01:45:45;;;;;;;;;;;;;;;;;;5093280;28;19908;-84
2022/06/14 01:48:32;;;;;;;;;;;;;;;;;;5086781;28;20005;-86
2022/06/14 01:54:34;;;;;;;;;;;;;;;;;;5076096;28;19908;-86
2022/06/14 01:57:20;;;;;;;;;;;;;;;;;;5088103;28;19967;-86
2022/06/14 02:00:07;;;;;;;;;;;;;;;;;;5087965;28;20402;-86
2022/06/14 02:04:36;;;;;;;;;;;;;;;;;;5072783;28;19915;-85
2022/06/14 02:06:00;;;;;;;;;;;;;;;;;;5076541;28;19930;-85
2022/06/14 02:08:46;;;;;;;;;;;;;;;;;;5079957;28;19923;-84
2022/06/14 02:11:33;;;;;;;;;;;;;;;;;;5085986;28;19913;-85
2022/06/14 02:14:19;;;;;;;;;;;;;;;;;;5072727;28;19915;-86
2022/06/14 02:17:06;;;;;;;;;;;;;;;;;;5086011;28;19912;-86
2022/06/14 02:19:53;;;;;;;;;;;;;;;;;;5074187;28;19913;-85
2022/06/14 02:22:39;;;;;;;;;;;;;;;;;;5089451;28;20467;-86
2022/06/14 02:25:26;;;;;;;;;;;;;;;;;;5074422;28;20416;-87
2022/06/14 02:28:12;;;;;;;;;;;;;;;;;;5087019;28;19923;-84
2022/06/14 02:30:59;;;;;;;;;;;;;;;;;;5082651;28;20373;-84
2022/06/14 02:33:45;;;;;;;;;;;;;;;;;;5075895;28;19909;-84
2022/06/14 02:36:32;;;;;;;;;;;;;;;;;;5088087;28;20371;-84
2022/06/14 02:39:18;;;;;;;;;;;;;;;;;;5073430;28;19912;-86
2022/06/14 02:42:05;;;;;;;;;;;;;;;;;;5082236;28;19920;-88
2022/06/14 02:44:51;;;;;;;;;;;;;;;;;;5081396;28;19909;-87
2022/06/14 02:47:38;;;;;;;;;;;;;;;;;;5080249;28;19918;-87
2022/06/14 02:50:24;;;;;;;;;;;;;;;;;;5088419;28;19934;-88
2022/06/14 02:53:11;;;;;;;;;;;;;;;;;;5085204;28;19916;-87
2022/06/14 02:55:57;;;;;;;;;;;;;;;;;;5065439;28;20348;-87
2022/06/14 02:58:44;;;;;;;;;;;;;;;;;;5079471;28;19915;-85
2022/06/14 03:01:30;;;;;;;;;;;;;;;;;;5084610;28;20288;-86
2022/06/14 03:04:17;;;;;;;;;;;;;;;;;;5087577;28;19946;-86
2022/06/14 03:07:03;;;;;;;;;;;;;;;;;;5085218;28;19908;-87
2022/06/14 03:09:50;;;;;;;;;;;;;;;;;;5069362;28;19908;-87
2022/06/14 03:12:38;;;;;;;;;;;;;;;;;;5064997;28;19916;-86
2022/06/14 03:15:25;;;;;;;;;;;;;;;;;;5086207;28;19916;-87
2022/06/14 03:18:11;;;;;;;;;;;;;;;;;;5078499;28;19928;-88
2022/06/14 03:20:58;;;;;;;;;;;;;;;;;;5080100;28;20364;-85
2022/06/14 03:23:44;;;;;;;;;;;;;;;;;;5082579;28;19912;-85
2022/06/14 03:26:31;;;;;;;;;;;;;;;;;;5089239;28;19917;-83
2022/06/14 03:29:17;;;;;;;;;;;;;;;;;;5088447;28;19916;-85
2022/06/14 03:32:04;;;;;;;;;;;;;;;;;;5077273;28;19915;-84
2022/06/14 03:34:50;;;;;;;;;;;;;;;;;;5083619;28;19916;-83
2022/06/14 03:37:37;;;;;;;;;;;;;;;;;;5086979;28;19924;-85
2022/06/14 03:40:23;;;;;;;;;;;;;;;;;;5082051;28;19918;-84
2022/06/14 03:43:10;;;;;;;;;;;;;;;;;;5079553;28;19930;-83
2022/06/14 03:45:56;;;;;;;;;;;;;;;;;;5086243;28;20219;-85
2022/06/14 03:48:43;;;;;;;;;;;;;;;;;;5080911;28;19916;-86
2022/06/14 03:51:29;;;;;;;;;;;;;;;;;;5082805;28;20389;-83
2022/06/14 03:54:16;;;;;;;;;;;;;;;;;;5083306;28;19915;-83
2022/06/14 03:57:02;;;;;;;;;;;;;;;;;;5075420;28;19920;-83
2022/06/14 03:59:48;;;;;;;;;;;;;;;;;;5079988;28;19915;-83
2022/06/14 04:02:53;;;;;;;;;;;;;;;;;;5079878;28;19938;-81
2022/06/14 04:05:40;;;;;;;;;;;;;;;;;;5080340;28;19912;-79
2022/06/14 04:08:26;;;;;;;;;;;;;;;;;;5079194;28;19916;-80
2022/06/14 04:11:13;;;;;;;;;;;;;;;;;;5072392;28;19921;-79
2022/06/14 04:13:59;;;;;;;;;;;;;;;;;;5069173;28;19909;-79
2022/06/14 04:16:46;;;;;;;;;;;;;;;;;;5065815;28;19912;-80
2022/06/14 04:19:32;;;;;;;;;;;;;;;;;;5077123;28;19917;-79
2022/06/14 04:22:19;;;;;;;;;;;;;;;;;;5064725;28;20590;-79
2022/06/14 04:25:05;;;;;;;;;;;;;;;;;;5075436;28;19917;-81
2022/06/14 04:27:52;;;;;;;;;;;;;;;;;;5080207;28;19912;-80
2022/06/14 04:30:38;;;;;;;;;;;;;;;;;;5078172;28;19916;-81
2022/06/14 04:33:27;;;;;;;;;;;;;;;;;;5068463;28;19908;-83
2022/06/14 04:39:20;;;;;;;;;;;;;;;;;;5080697;28;20513;-78
2022/06/14 04:42:08;;;;;;;;;;;;;;;;;;5084614;28;19915;-78
2022/06/14 04:44:54;;;;;;;;;;;;;;;;;;5077881;28;19914;-78
2022/06/14 04:47:41;;;;;;;;;;;;;;;;;;5069526;28;19916;-78
2022/06/14 04:50:27;;;;;;;;;;;;;;;;;;5085120;28;19920;-79
2022/06/14 04:53:14;;;;;;;;;;;;;;;;;;5074474;28;19923;-80
2022/06/14 04:56:01;;;;;;;;;;;;;;;;;;5084237;28;20384;-79
2022/06/14 04:58:48;;;;;;;;;;;;;;;;;;5072411;28;20296;-83
2022/06/14 05:01:34;;;;;;;;;;;;;;;;;;5085023;28;19912;-80
2022/06/14 05:04:21;;;;;;;;;;;;;;;;;;5069937;28;20316;-78
2022/06/14 05:07:07;;;;;;;;;;;;;;;;;;5087472;28;19916;-79
2022/06/14 05:09:54;;;;;;;;;;;;;;;;;;5088774;28;20360;-80
2022/06/14 05:12:41;;;;;;;;;;;;;;;;;;5075831;28;19915;-80
2022/06/14 05:15:27;;;;;;;;;;;;;;;;;;5081074;28;19922;-80
2022/06/14 05:18:13;;;;;;;;;;;;;;;;;;5077405;28;20291;-80
2022/06/14 05:21:00;;;;;;;;;;;;;;;;;;5071043;28;19913;-81
2022/06/14 05:23:47;;;;;;;;;;;;;;;;;;5078934;28;20380;-80
2022/06/14 05:26:33;;;;;;;;;;;;;;;;;;5071479;28;19908;-80
2022/06/14 05:29:22;;;;;;;;;;;;;;;;;;5088643;28;19915;-80
2022/06/14 05:32:08;;;;;;;;;;;;;;;;;;5083059;28;20505;-79
2022/06/14 05:34:55;;;;;;;;;;;;;;;;;;5079697;28;19908;-80
2022/06/14 05:37:41;;;;;;;;;;;;;;;;;;5083372;28;20291;-80
2022/06/14 05:40:27;;;;;;;;;;;;;;;;;;5082258;28;19916;-78
2022/06/14 05:43:14;;;;;;;;;;;;;;;;;;5083378;28;20352;-78
2022/06/14 05:46:01;;;;;;;;;;;;;;;;;;5083192;28;20610;-78
2022/06/14 05:48:47;;;;;;;;;;;;;;;;;;5086612;28;20581;-80
2022/06/14 05:51:33;;;;;;;;;;;;;;;;;;5083199;28;19928;-80
2022/06/14 05:54:20;;;;;;;;;;;;;;;;;;5090159;28;20295;-80
2022/06/14 05:57:07;;;;;;;;;;;;;;;;;;5077486;28;19920;-80
2022/06/14 05:59:53;;;;;;;;;;;;;;;;;;5085672;28;19922;-79
2022/06/14 06:02:39;;;;;;;;;;;;;;;;;;5083834;28;20232;-81
2022/06/14 06:05:26;;;;;;;;;;;;;;;;;;5081336;28;19915;-81
2022/06/14 06:08:13;;;;;;;;;;;;;;;;;;5073910;28;19929;-81
2022/06/14 06:11:02;;;;;;;;;;;;;;;;;;5083308;28;19912;-81
2022/06/14 06:13:49;;;;;;;;;;;;;;;;;;5080973;28;19908;-81
2022/06/14 06:16:48;;;;;;;;;;;;;;;;;;5081432;28;19955;-81
2022/06/14 06:19:34;;;;;;;;;;;;;;;;;;5078871;28;19912;-81
2022/06/14 06:22:21;;;;;;;;;;;;;;;;;;5075501;28;19912;-82
2022/06/14 06:25:07;;;;;;;;;;;;;;;;;;5081633;28;19908;-81
2022/06/14 06:27:53;;;;;;;;;;;;;;;;;;5083016;28;19916;-81
2022/06/14 06:30:40;;;;;;;;;;;;;;;;;;5087055;28;19918;-80
2022/06/14 06:33:26;;;;;;;;;;;;;;;;;;5073805;28;19958;-79
2022/06/14 06:36:13;;;;;;;;;;;;;;;;;;5087554;28;19919;-79
2022/06/14 06:39:02;;;;;;;;;;;;;;;;;;5077228;28;19927;-80
2022/06/14 06:41:52;;;;;;;;;;;;;;;;;;5083489;28;19923;-80
2022/06/14 06:44:38;;;;;;;;;;;;;;;;;;5084868;28;19919;-79
2022/06/14 06:47:25;;;;;;;;;;;;;;;;;;5088159;28;19919;-80
2022/06/14 06:50:11;;;;;;;;;;;;;;;;;;5080617;28;19916;-79
2022/06/14 06:52:58;;;;;;;;;;;;;;;;;;5079826;28;19924;-79
2022/06/14 06:55:44;;;;;;;;;;;;;;;;;;5075684;28;19908;-79
2022/06/14 06:58:31;;;;;;;;;;;;;;;;;;5080885;28;20403;-79
2022/06/14 07:01:20;;;;;;;;;;;;;;;;;;5070575;28;19920;-79
2022/06/14 07:04:06;;;;;;;;;;;;;;;;;;5077916;28;19916;-79
2022/06/14 07:06:53;;;;;;;;;;;;;;;;;;5063980;28;19922;-79
2022/06/14 07:09:39;;;;;;;;;;;;;;;;;;5072381;28;19927;-82
2022/06/14 07:12:25;;;;;;;;;;;;;;;;;;5068267;28;20651;-80
2022/06/14 07:15:12;;;;;;;;;;;;;;;;;;5061352;28;19908;-80
2022/06/14 07:17:59;;;;;;;;;;;;;;;;;;5067618;28;19928;-81
2022/06/14 07:20:48;;;;;;;;;;;;;;;;;;5081865;28;19913;-78
2022/06/14 07:23:34;;;;;;;;;;;;;;;;;;5086407;28;19908;-80
2022/06/14 07:26:21;;;;;;;;;;;;;;;;;;5069398;28;20021;-80
2022/06/14 07:29:07;;;;;;;;;;;;;;;;;;5082261;28;20288;-80
2022/06/14 07:31:54;;;;;;;;;;;;;;;;;;5086924;28;19950;-79
2022/06/14 07:34:40;;;;;;;;;;;;;;;;;;5083762;28;20287;-79
2022/06/14 07:37:26;;;;;;;;;;;;;;;;;;5077766;28;19916;-79
2022/06/14 07:40:14;;;;;;;;;;;;;;;;;;5077107;28;20376;-80
2022/06/14 07:43:00;;;;;;;;;;;;;;;;;;5074720;28;19913;-79
2022/06/14 07:45:47;;;;;;;;;;;;;;;;;;5081094;28;20001;-80
2022/06/14 07:48:33;;;;;;;;;;;;;;;;;;5064243;28;20275;-79
2022/06/14 07:51:21;;;;;;;;;;;;;;;;;;5081458;28;19934;-79
2022/06/14 07:54:08;;;;;;;;;;;;;;;;;;5082683;28;19912;-79
2022/06/14 07:56:55;;;;;;;;;;;;;;;;;;5082325;28;19919;-79
2022/06/14 07:59:41;;;;;;;;;;;;;;;;;;5085419;28;20356;-79
2022/06/14 08:02:28;;;;;;;;;;;;;;;;;;5085970;28;19922;-80
2022/06/14 08:05:14;;;;;;;;;;;;;;;;;;5088426;28;19969;-78
2022/06/14 08:08:05;;;;;;;;;;;;;;;;;;5085185;28;19915;-80
2022/06/14 08:10:52;;;;;;;;;;;;;;;;;;5091545;28;19915;-80
2022/06/14 08:13:39;;;;;;;;;;;;;;;;;;5090929;28;19908;-80
2022/06/14 08:16:26;;;;;;;;;;;;;;;;;;5084542;28;19922;-78
2022/06/14 08:19:12;;;;;;;;;;;;;;;;;;5074726;28;19923;-78
2022/06/14 08:21:59;;;;;;;;;;;;;;;;;;5081247;28;19923;-78
2022/06/14 08:24:45;;;;;;;;;;;;;;;;;;5087452;28;20248;-78
2022/06/14 08:27:32;;;;;;;;;;;;;;;;;;5083323;28;19915;-78
2022/06/14 08:30:18;;;;;;;;;;;;;;;;;;5087016;28;20521;-78
2022/06/14 08:33:05;;;;;;;;;;;;;;;;;;5084942;28;19915;-79
2022/06/14 08:35:51;;;;;;;;;;;;;;;;;;5086979;28;19953;-79
2022/06/14 08:38:38;;;;;;;;;;;;;;;;;;5074876;28;19931;-79
2022/06/14 08:41:24;;;;;;;;;;;;;;;;;;5078362;28;19915;-79
2022/06/14 08:44:11;;;;;;;;;;;;;;;;;;5084855;28;19912;-79
2022/06/14 08:46:57;;;;;;;;;;;;;;;;;;5084947;28;19931;-79
2022/06/14 08:49:44;;;;;;;;;;;;;;;;;;5085316;28;19923;-78
2022/06/14 08:52:31;;;;;;;;;;;;;;;;;;5078724;28;19921;-79
2022/06/14 08:55:17;;;;;;;;;;;;;;;;;;5079709;28;19920;-79
2022/06/14 08:58:04;;;;;;;;;;;;;;;;;;5073548;28;19916;-79
2022/06/14 09:00:50;;;;;;;;;;;;;;;;;;5080578;28;20511;-79
2022/06/14 09:03:37;;;;;;;;;;;;;;;;;;5085679;28;19915;-79
2022/06/14 09:06:24;;;;;;;;;;;;;;;;;;5079358;28;19916;-79
2022/06/14 09:09:10;;;;;;;;;;;;;;;;;;5080100;28;19951;-79
2022/06/14 09:11:57;;;;;;;;;;;;;;;;;;5083170;28;19914;-79
2022/06/14 09:14:43;;;;;;;;;;;;;;;;;;5069421;28;19908;-79
2022/06/14 09:17:30;;;;;;;;;;;;;;;;;;5080616;28;19946;-79
2022/06/14 09:20:16;;;;;;;;;;;;;;;;;;5082327;28;19915;-79
2022/06/14 09:23:03;;;;;;;;;;;;;;;;;;5079948;28;20292;-79
2022/06/14 09:25:49;;;;;;;;;;;;;;;;;;5078408;28;19920;-79
2022/06/14 09:28:35;;;;;;;;;;;;;;;;;;5083203;28;19914;-78
2022/06/14 09:31:22;;;;;;;;;;;;;;;;;;5085743;28;19920;-78
2022/06/14 09:34:08;;;;;;;;;;;;;;;;;;5075701;28;20335;-79
2022/06/14 09:36:55;;;;;;;;;;;;;;;;;;5075108;28;19916;-79
2022/06/14 09:39:41;;;;;;;;;;;;;;;;;;5067627;28;19912;-79
2022/06/14 09:42:28;;;;;;;;;;;;;;;;;;5077940;28;20387;-79
2022/06/14 09:45:14;;;;;;;;;;;;;;;;;;5075173;28;19920;-79
2022/06/14 09:48:02;;;;;;;;;;;;;;;;;;5083643;28;19908;-79
2022/06/14 09:50:48;;;;;;;;;;;;;;;;;;5075289;28;19920;-79
2022/06/14 09:53:35;;;;;;;;;;;;;;;;;;5073938;28;19912;-78
2022/06/14 09:56:21;;;;;;;;;;;;;;;;;;5073036;28;19928;-79
2022/06/14 09:59:07;;;;;;;;;;;;;;;;;;5072685;28;19924;-80
2022/06/14 10:01:54;;;;;;;;;;;;;;;;;;5073476;28;19908;-77
2022/06/14 10:04:40;;;;;;;;;;;;;;;;;;5077582;28;19919;-80
2022/06/14 10:07:27;;;;;;;;;;;;;;;;;;5072309;28;19916;-78
2022/06/14 10:10:13;;;;;;;;;;;;;;;;;;5076473;28;20602;-78
2022/06/14 10:13:02;;;;;;;;;;;;;;;;;;5075633;28;19912;-78
2022/06/14 10:15:52;;;;;;;;;;;;;;;;;;5076219;28;19916;-78
2022/06/14 10:18:38;;;;;;;;;;;;;;;;;;5065300;28;19926;-80
2022/06/14 10:21:27;;;;;;;;;;;;;;;;;;5077169;28;19912;-78
2022/06/14 10:24:17;;;;;;;;;;;;;;;;;;5068917;28;19930;-79
2022/06/14 10:30:08;;;;;;;;;;;;;;;;;;5074219;28;19913;-78
2022/06/14 10:33:01;;;;;;;;;;;;;;;;;;5074642;28;19908;-79
2022/06/14 10:35:47;;;;;;;;;;;;;;;;;;5081207;28;20013;-79
2022/06/14 10:38:34;;;;;;;;;;;;;;;;;;5079476;28;20298;-79
2022/06/14 10:41:21;;;;;;;;;;;;;;;;;;5071154;28;19915;-79
2022/06/14 10:44:08;;;;;;;;;;;;;;;;;;5072010;28;19915;-79
2022/06/14 10:46:55;;;;;;;;;;;;;;;;;;5076011;28;19908;-79
2022/06/14 10:49:41;;;;;;;;;;;;;;;;;;5084747;28;19936;-78
2022/06/14 10:52:28;;;;;;;;;;;;;;;;;;5055165;28;19980;-79
2022/06/14 10:55:20;;;;;;;;;;;;;;;;;;5081391;28;19915;-79
2022/06/14 10:58:09;;;;;;;;;;;;;;;;;;5068289;28;20010;-79
2022/06/14 11:00:59;;;;;;;;;;;;;;;;;;5077362;28;19908;-79
2022/06/14 11:03:45;;;;;;;;;;;;;;;;;;5076332;28;19916;-78
2022/06/14 11:06:34;;;;;;;;;;;;;;;;;;5072826;28;20327;-78
2022/06/14 11:09:21;;;;;;;;;;;;;;;;;;5081682;28;19912;-78
2022/06/14 11:12:10;;;;;;;;;;;;;;;;;;5077279;28;20284;-77
2022/06/14 11:14:57;;;;;;;;;;;;;;;;;;5082630;28;19912;-78
2022/06/14 11:17:43;;;;;;;;;;;;;;;;;;5084635;28;19923;-78
2022/06/14 11:20:30;;;;;;;;;;;;;;;;;;5074330;28;19917;-78
2022/06/14 11:23:16;;;;;;;;;;;;;;;;;;5078889;28;19912;-79
2022/06/14 11:26:03;;;;;;;;;;;;;;;;;;5084504;28;19916;-78
2022/06/14 11:28:50;;;;;;;;;;;;;;;;;;5066337;28;20281;-78
2022/06/14 11:31:36;;;;;;;;;;;;;;;;;;5084723;28;20368;-78
2022/06/14 11:34:23;;;;;;;;;;;;;;;;;;5072895;28;19923;-79
2022/06/14 11:37:09;;;;;;;;;;;;;;;;;;5079251;28;19919;-79
2022/06/14 11:39:56;;;;;;;;;;;;;;;;;;5085954;28;19923;-79
2022/06/14 11:42:42;;;;;;;;;;;;;;;;;;5086711;28;19923;-78
2022/06/14 11:45:29;;;;;;;;;;;;;;;;;;5077355;28;19912;-78
2022/06/14 11:48:15;;;;;;;;;;;;;;;;;;5083244;28;19908;-78
2022/06/14 11:51:02;;;;;;;;;;;;;;;;;;5066426;28;19927;-79
2022/06/14 11:53:48;;;;;;;;;;;;;;;;;;5063748;28;19913;-79
2022/06/14 11:56:34;;;;;;;;;;;;;;;;;;5064741;28;20435;-80
2022/06/14 11:59:21;;;;;;;;;;;;;;;;;;5057266;28;19921;-79
2022/06/14 12:02:07;;;;;;;;;;;;;;;;;;5062183;28;20363;-78
2022/06/14 12:04:54;;;;;;;;;;;;;;;;;;5066680;28;19942;-78
2022/06/14 12:07:40;;;;;;;;;;;;;;;;;;5061465;28;19919;-78
2022/06/14 12:10:27;;;;;;;;;;;;;;;;;;5062944;28;20376;-77
2022/06/14 12:13:13;;;;;;;;;;;;;;;;;;5051142;28;19912;-78
2022/06/14 12:16:00;;;;;;;;;;;;;;;;;;5063099;28;20372;-77
2022/06/14 12:18:46;;;;;;;;;;;;;;;;;;5052493;28;20376;-76
2022/06/14 12:21:33;;;;;;;;;;;;;;;;;;5056571;28;19912;-76
2022/06/14 12:24:19;;;;;;;;;;;;;;;;;;5056848;28;19923;-78
2022/06/14 12:27:06;;;;;;;;;;;;;;;;;;5048315;28;19916;-78
2022/06/14 12:29:52;;;;;;;;;;;;;;;;;;5050539;28;19909;-77
2022/06/14 12:32:39;;;;;;;;;;;;;;;;;;5066539;28;19917;-78
2022/06/14 12:35:25;;;;;;;;;;;;;;;;;;5047431;28;19913;-77
2022/06/14 12:38:12;;;;;;;;;;;;;;;;;;5066119;28;20280;-77
2022/06/14 12:40:58;;;;;;;;;;;;;;;;;;5067720;28;19919;-77
2022/06/14 12:43:45;;;;;;;;;;;;;;;;;;5067735;28;20315;-78
2022/06/14 12:46:31;;;;;;;;;;;;;;;;;;5056269;28;19912;-78
2022/06/14 12:49:18;;;;;;;;;;;;;;;;;;5060606;28;20476;-78
2022/06/14 12:52:04;;;;;;;;;;;;;;;;;;5078233;28;20296;-78
2022/06/14 12:54:51;;;;;;;;;;;;;;;;;;5081043;28;19931;-79
2022/06/14 12:57:37;;;;;;;;;;;;;;;;;;5083004;28;19920;-77
2022/06/14 13:00:24;;;;;;;;;;;;;;;;;;5075877;28;19923;-77
2022/06/14 13:03:10;;;;;;;;;;;;;;;;;;5086444;28;20411;-78
2022/06/14 13:05:57;;;;;;;;;;;;;;;;;;5083678;28;19915;-77
2022/06/14 13:08:43;;;;;;;;;;;;;;;;;;5061120;28;19912;-77
2022/06/14 13:11:30;;;;;;;;;;;;;;;;;;5072446;28;19922;-78
2022/06/14 13:14:17;;;;;;;;;;;;;;;;;;5080802;28;20261;-76
2022/06/14 13:17:03;;;;;;;;;;;;;;;;;;5082712;28;19931;-78
2022/06/14 13:19:53;;;;;;;;;;;;;;;;;;5087040;28;19931;-77
2022/06/14 13:22:39;;;;;;;;;;;;;;;;;;5087686;28;19912;-77
2022/06/14 13:25:26;;;;;;;;;;;;;;;;;;5089752;28;19923;-77
2022/06/14 13:28:12;;;;;;;;;;;;;;;;;;5087297;28;19908;-78
2022/06/14 13:30:59;;;;;;;;;;;;;;;;;;5085208;28;19919;-76
2022/06/14 13:33:45;;;;;;;;;;;;;;;;;;5083771;28;19908;-77
2022/06/14 13:36:32;;;;;;;;;;;;;;;;;;5078182;28;19931;-77
2022/06/14 13:39:18;;;;;;;;;;;;;;;;;;5079582;28;19920;-77
2022/06/14 13:42:05;;;;;;;;;;;;;;;;;;5074468;28;19915;-77
2022/06/14 13:44:51;;;;;;;;;;;;;;;;;;5088671;28;19908;-78
2022/06/14 13:47:41;;;;;;;;;;;;;;;;;;5085813;28;19922;-78
2022/06/14 13:50:27;;;;;;;;;;;;;;;;;;5082718;28;19912;-77
2022/06/14 13:53:16;;;;;;;;;;;;;;;;;;5087364;28;20073;-78
2022/06/14 13:56:03;;;;;;;;;;;;;;;;;;5088367;28;20028;-78
2022/06/14 13:58:49;;;;;;;;;;;;;;;;;;5079465;28;19920;-78
2022/06/14 14:01:36;;;;;;;;;;;;;;;;;;5083967;28;20292;-79
2022/06/14 14:04:22;;;;;;;;;;;;;;;;;;5084588;28;19951;-79
2022/06/14 14:07:10;;;;;;;;;;;;;;;;;;5076755;28;19916;-79
2022/06/14 14:09:56;;;;;;;;;;;;;;;;;;5067536;28;19908;-79
2022/06/14 14:12:45;;;;;;;;;;;;;;;;;;5075372;28;20435;-79
2022/06/14 14:15:31;;;;;;;;;;;;;;;;;;5079721;28;19908;-79
2022/06/14 14:18:18;;;;;;;;;;;;;;;;;;5079268;28;19927;-78
2022/06/14 14:21:04;;;;;;;;;;;;;;;;;;5074307;28;19954;-77
2022/06/14 14:23:51;;;;;;;;;;;;;;;;;;5069622;28;19957;-78
2022/06/14 14:26:40;;;;;;;;;;;;;;;;;;5084893;28;19914;-79
2022/06/14 14:29:27;;;;;;;;;;;;;;;;;;5076418;28;19912;-79
2022/06/14 14:32:13;;;;;;;;;;;;;;;;;;5085288;28;20264;-79
2022/06/14 14:35:00;;;;;;;;;;;;;;;;;;5086412;28;20643;-79
2022/06/14 14:37:46;;;;;;;;;;;;;;;;;;5087975;28;19920;-78
2022/06/14 14:40:33;;;;;;;;;;;;;;;;;;5072960;28;19921;-80
2022/06/14 14:43:20;;;;;;;;;;;;;;;;;;5071427;28;20368;-78
2022/06/14 14:46:07;;;;;;;;;;;;;;;;;;5088499;28;19912;-79
2022/06/14 14:48:54;;;;;;;;;;;;;;;;;;5074710;28;19912;-78
2022/06/14 14:51:40;;;;;;;;;;;;;;;;;;5084717;28;19931;-78
2022/06/14 14:54:27;;;;;;;;;;;;;;;;;;5083959;28;19919;-80
2022/06/14 14:57:13;;;;;;;;;;;;;;;;;;5080024;28;19916;-79
2022/06/14 15:00:00;;;;;;;;;;;;;;;;;;5070650;28;19994;-79
2022/06/14 15:05:51;;;;;;;;;;;;;;;;;;5084776;28;19919;-80
2022/06/14 15:08:38;;;;;;;;;;;;;;;;;;5086439;28;20578;-80
2022/06/14 15:11:24;;;;;;;;;;;;;;;;;;5069390;28;19913;-80
2022/06/14 15:14:11;;;;;;;;;;;;;;;;;;5076806;28;19919;-85
2022/06/14 15:20:03;;;;;;;;;;;;;;;;;;5078807;28;20395;-82
2022/06/14 15:22:50;;;;;;;;;;;;;;;;;;5075596;28;19919;-82
2022/06/14 15:25:37;;;;;;;;;;;;;;;;;;5074431;28;19909;-81
2022/06/14 15:28:26;;;;;;;;;;;;;;;;;;5061796;28;19916;-82
2022/06/14 15:31:13;;;;;;;;;;;;;;;;;;5078912;28;19923;-82
2022/06/14 15:34:01;;;;;;;;;;;;;;;;;;5083750;28;19915;-81
2022/06/14 15:36:50;;;;;;;;;;;;;;;;;;5086724;28;20397;-79
2022/06/14 15:39:36;;;;;;;;;;;;;;;;;;5078223;28;19921;-82
2022/06/14 15:42:23;;;;;;;;;;;;;;;;;;5066568;28;19920;-81
2022/06/14 15:45:09;;;;;;;;;;;;;;;;;;5072816;28;19943;-80
2022/06/14 15:47:55;;;;;;;;;;;;;;;;;;5076924;28;19989;-82
2022/06/14 15:50:42;;;;;;;;;;;;;;;;;;5072649;28;19927;-79
2022/06/14 15:53:29;;;;;;;;;;;;;;;;;;5076138;28;20344;-81
2022/06/14 15:56:15;;;;;;;;;;;;;;;;;;5069200;28;19934;-80
2022/06/14 15:59:02;;;;;;;;;;;;;;;;;;5079208;28;19916;-79
2022/06/14 16:01:48;;;;;;;;;;;;;;;;;;5078271;28;19916;-86
2022/06/14 16:04:34;;;;;;;;;;;;;;;;;;5069800;28;19909;-78
2022/06/14 16:07:21;;;;;;;;;;;;;;;;;;5077809;28;19922;-83
2022/06/14 16:10:10;;;;;;;;;;;;;;;;;;5077190;28;19908;-80
2022/06/14 16:12:56;;;;;;;;;;;;;;;;;;5077522;28;19921;-81
2022/06/14 16:15:43;;;;;;;;;;;;;;;;;;5076216;28;20767;-80
2022/06/14 16:18:29;;;;;;;;;;;;;;;;;;5070618;28;19991;-79
2022/06/14 16:21:16;;;;;;;;;;;;;;;;;;5068587;28;19912;-80
2022/06/14 16:24:02;;;;;;;;;;;;;;;;;;5079517;28;19916;-81
2022/06/14 16:26:49;;;;;;;;;;;;;;;;;;5080414;28;19908;-80
2022/06/14 16:29:36;;;;;;;;;;;;;;;;;;5080826;28;19943;-80
2022/06/14 16:32:22;;;;;;;;;;;;;;;;;;5081015;28;19921;-79
2022/06/14 16:35:09;;;;;;;;;;;;;;;;;;5074504;28;19912;-80
2022/06/14 16:37:55;;;;;;;;;;;;;;;;;;5070238;28;20456;-80
2022/06/14 16:40:42;;;;;;;;;;;;;;;;;;5081530;28;19912;-80
2022/06/14 16:43:28;;;;;;;;;;;;;;;;;;5085274;28;19915;-79
2022/06/14 16:46:15;;;;;;;;;;;;;;;;;;5081347;28;19912;-79
2022/06/14 16:49:02;;;;;;;;;;;;;;;;;;5082457;28;19919;-79
2022/06/14 16:51:48;;;;;;;;;;;;;;;;;;5072915;28;20304;-78
2022/06/14 16:54:35;;;;;;;;;;;;;;;;;;5082824;28;19916;-79
2022/06/14 16:57:22;;;;;;;;;;;;;;;;;;5080047;28;19947;-79
2022/06/14 17:00:08;;;;;;;;;;;;;;;;;;5070570;28;19924;-79
2022/06/14 17:03:13;;;;;;;;;;;;;;;;;;5091315;28;20287;-78
2022/06/14 17:06:00;;;;;;;;;;;;;;;;;;5081133;28;20288;-79
2022/06/14 17:08:46;;;;;;;;;;;;;;;;;;5080336;28;19915;-78
2022/06/14 17:11:32;;;;;;;;;;;;;;;;;;5075693;28;19908;-79
2022/06/14 17:14:19;;;;;;;;;;;;;;;;;;5067313;28;20330;-78
2022/06/14 17:17:05;;;;;;;;;;;;;;;;;;5085199;28;19908;-78
2022/06/14 17:19:52;;;;;;;;;;;;;;;;;;5079714;28;19924;-78
2022/06/14 17:22:39;;;;;;;;;;;;;;;;;;5077075;28;19919;-79
2022/06/14 17:31:44;;;;;;;;;;;;;;;;;;5067836;28;19912;-77
2022/06/14 17:34:30;;;;;;;;;;;;;;;;;;5081971;28;20377;-80
2022/06/14 17:37:17;;;;;;;;;;;;;;;;;;5083726;28;19908;-79
2022/06/14 17:40:03;;;;;;;;;;;;;;;;;;5089897;28;19927;-79
2022/06/14 17:42:50;;;;;;;;;;;;;;;;;;5081856;28;20244;-77
2022/06/14 17:45:36;;;;;;;;;;;;;;;;;;5084282;28;19909;-78
2022/06/14 17:48:23;;;;;;;;;;;;;;;;;;5080287;28;19912;-78
2022/06/14 17:51:09;;;;;;;;;;;;;;;;;;5077637;28;19924;-78
2022/06/14 17:53:55;;;;;;;;;;;;;;;;;;5087321;28;19908;-79
2022/06/14 17:56:42;;;;;;;;;;;;;;;;;;5084115;28;19908;-78
2022/06/14 17:59:28;;;;;;;;;;;;;;;;;;5087883;28;19920;-78
2022/06/14 18:02:15;;;;;;;;;;;;;;;;;;5085987;28;19908;-78
2022/06/14 18:05:01;;;;;;;;;;;;;;;;;;5083390;28;19951;-78
2022/06/14 18:07:48;;;;;;;;;;;;;;;;;;5074391;28;19912;-77
2022/06/14 18:10:34;;;;;;;;;;;;;;;;;;5077237;28;20292;-79
2022/06/14 18:13:21;;;;;;;;;;;;;;;;;;5084101;28;19908;-77
2022/06/14 18:16:07;;;;;;;;;;;;;;;;;;5078863;28;20442;-76
2022/06/14 18:18:54;;;;;;;;;;;;;;;;;;5077956;28;19916;-78
2022/06/14 18:21:40;;;;;;;;;;;;;;;;;;5075243;28;20340;-80
2022/06/14 18:24:27;;;;;;;;;;;;;;;;;;5085256;28;19919;-79
2022/06/14 18:27:13;;;;;;;;;;;;;;;;;;5072389;28;19959;-76
2022/06/14 18:30:00;;;;;;;;;;;;;;;;;;5071804;28;20388;-76
2022/06/14 18:32:46;;;;;;;;;;;;;;;;;;5075483;28;19912;-78
2022/06/14 18:35:33;;;;;;;;;;;;;;;;;;5080842;28;19912;-80
2022/06/14 18:38:19;;;;;;;;;;;;;;;;;;5073949;28;19924;-80
2022/06/14 18:41:06;;;;;;;;;;;;;;;;;;5075071;28;20368;-83
2022/06/14 18:43:55;;;;;;;;;;;;;;;;;;5079626;28;19916;-82
2022/06/14 18:46:41;;;;;;;;;;;;;;;;;;5076354;28;19923;-82
2022/06/14 18:49:28;;;;;;;;;;;;;;;;;;5061539;28;20287;-82
2022/06/14 18:52:14;;;;;;;;;;;;;;;;;;5078670;28;19921;-81
2022/06/14 18:55:01;;;;;;;;;;;;;;;;;;5073006;28;19928;-78
2022/06/14 18:57:47;;;;;;;;;;;;;;;;;;5075729;28;19914;-80
2022/06/14 19:00:34;;;;;;;;;;;;;;;;;;5079807;28;19920;-80
2022/06/14 19:03:24;;;;;;;;;;;;;;;;;;5078636;28;19923;-80
2022/06/14 19:06:13;;;;;;;;;;;;;;;;;;5078136;28;19916;-80
2022/06/14 19:08:59;;;;;;;;;;;;;;;;;;5073664;28;20384;-81
2022/06/14 19:11:46;;;;;;;;;;;;;;;;;;5076512;28;19916;-80
2022/06/14 19:14:32;;;;;;;;;;;;;;;;;;5080904;28;19912;-83
2022/06/14 19:17:19;;;;;;;;;;;;;;;;;;5076393;28;19912;-80
2022/06/14 19:20:05;;;;;;;;;;;;;;;;;;5073822;28;20327;-82
2022/06/14 19:22:51;;;;;;;;;;;;;;;;;;5078745;28;19958;-81